Pound Ridge, New York
Current Conditions -  °F | °C
As of 11:53 AM on Friday 28 Nov 2014 (Local Time) from KDXR Reporting Station
Scattered Clouds Scattered Clouds  
Wind Chill: 25°   Ceiling: Unl
Heat Index: 33°   Visibility: 10mi
Dew Point: 17°   Wind: 10mph
Humidity: 52%   Direction: 300°WNW
Pressure: 30.12"   Gusts: 17mph
Location:  41.21°N, 73.57°W
Report Text: KDXR 281653Z 30009G15KT 10SM SCT034 01/M08 A3012 RMK AO2 SLP205 T00061083
Loading
Personal Weather Stations






























Interactive Weather Map New forecast layout! Learn more

10-Day Weather Forecast

Advertisements
Track Severe Weather on mobile